Latest Weather Observations for Esperance Harbour

IDW60801

Issued at 8:04 am WST Thursday 19 January 2017 (issued every 30 minutes, with the page automatically refreshed every 10 minutes)

About weather observations | Map of weather stations | Latest weather observations for WA | Other Formats
Station Details ID: 109504 Name: ESPERANCE NTC AWS Lat: -33.87 Lon: 121.90 Height: 0.0 m
Data from the previous 72 hours. | See also: Recent months for locations in Western Australia
Date/Time
WST
Temp
°C
App
Temp
°C
Dew
Point
°C
Rel
Hum
%
Delta-T
°C
Wind Press
QNH
hPa
Press
MSL
hPa
Rain since
9am
mm
Dir  Spd
km/h
Gust
km/h
Spd
kts
Gust
kts
19/08:00am 20.4 - - - - CALM 0 0 0 0 1005.8 1005.8 -
19/07:30am 19.3 - - - - CALM 0 0 0 0 1006.5 - -
19/07:00am 18.9 - - - - - - - - - 1005.7 1005.7 -
19/06:30am 18.8 - - - - - - - - - 1004.6 - -
19/06:00am 18.6 - - - - - - - - - 1004.5 1004.5 -
19/05:30am 18.6 - - - - - - - - - 1004.2 - -
19/05:00am 18.6 - - - - - - - - - 1003.7 1003.7 -
19/04:30am 18.5 - - - - - - - - - 1003.9 - -
19/04:00am 18.3 - - - - - - - - - 1004.3 1004.3 -
19/03:30am 18.4 - - - - - - - - - 1004.9 - -
19/03:00am 18.4 - - - - - - - - - 1004.9 1004.9 -
19/02:30am 18.6 - - - - - - - - - 1006.1 - -
19/02:00am 18.7 - - - - - - - - - 1006.0 1006.0 -
19/01:30am 18.9 - - - - - - - - - 1006.1 - -
19/01:00am 19.0 - - - - - - - - - 1007.1 1007.1 -
19/12:30am 19.1 - - - - - - - - - 1007.0 - -
19/12:00am 19.5 - - - - - - - - - 1008.0 1008.0 -
 
Date/Time
WST
Temp
°C
App
Temp
°C
Dew
Point
°C
Rel
Hum
%
Delta-T
°C
Wind Press
QNH
hPa
Press
MSL
hPa
Rain since
9am
mm
Dir  Spd
km/h
Gust
km/h
Spd
kts
Gust
kts
18/11:30pm 19.5 - - - - - - - - - 1009.1 - -
18/11:00pm 19.7 - - - - - - - - - 1009.0 1009.0 -
18/10:30pm 19.8 - - - - - - - - - 1009.4 - -
18/10:00pm 20.1 - - - - - - - - - 1009.5 1009.5 -
18/09:30pm 19.9 - - - - - - - - - 1009.5 - -
18/09:00pm 20.1 - - - - - - - - - 1009.6 1009.6 -
18/08:30pm 20.1 - - - - - - - - - 1009.6 - -
18/08:00pm 20.5 - - - - - - - - - 1009.7 1009.7 -
18/07:30pm 21.8 - - - - - - - - - 1009.6 - -
18/07:00pm 22.5 - - - - - - - - - 1009.4 1009.4 -
18/06:30pm 23.1 - - - - - - - - - 1009.4 - -
18/06:00pm 23.7 - - - - - - - - - 1009.5 1009.5 -
18/05:30pm 24.4 - - - - - - - - - 1009.7 - -
18/05:00pm 24.9 - - - - - - - - - 1009.3 1009.3 -
18/04:30pm 25.1 - - - - - - - - - 1009.7 - -
18/04:00pm 23.9 - - - - - - - - - 1009.9 1009.9 -
18/03:30pm 23.6 - - - - - - - - - 1010.2 - -
18/03:00pm 23.5 - - - - - - - - - 1010.5 1010.5 -
18/02:30pm 23.4 - - - - - - - - - 1011.0 - -
18/02:00pm 21.9 - - - - - - - - - 1011.6 1011.6 -
18/01:30pm 21.7 - - - - - - - - - 1012.0 - -
18/01:00pm 21.8 - - - - - - - - - 1012.5 1012.5 -
18/12:30pm 21.7 - - - - - - - - - 1013.0 - -
18/12:00pm 21.8 - - - - - - - - - 1013.5 1013.5 -
18/11:30am 22.3 - - - - - - - - - 1014.2 - -
18/11:00am 21.5 - - - - - - - - - 1014.8 1014.8 -
18/10:30am 21.1 - - - - - - - - - 1015.3 - -
18/10:00am 20.3 - - - - - - - - - 1015.9 1015.9 -
18/09:30am 19.7 - - - - - - - - - 1016.3 - -
18/09:00am 19.1 - - - - - - - - - 1016.9 1016.9 -
18/08:30am 18.6 - - - - - - - - - 1017.2 - -
18/08:00am 18.4 - - - - - - - - - 1017.5 1017.5 -
18/07:30am 17.9 - - - - - - - - - 1017.6 - -
18/07:00am 17.7 - - - - - - - - - 1017.8 1017.8 -
18/06:30am 17.1 - - - - - - - - - 1017.9 - -
18/06:00am 16.8 - - - - - - - - - 1017.6 1017.6 -
18/05:30am 17.2 - - - - - - - - - 1017.6 - -
18/05:00am 17.6 - - - - - - - - - 1017.5 1017.5 -
18/04:30am 17.4 - - - - - - - - - 1017.3 - -
18/04:00am 17.5 - - - - - - - - - 1017.3 1017.3 -
18/03:30am 17.6 - - - - - - - - - 1017.3 - -
18/03:00am 17.4 - - - - - - - - - 1017.1 1017.1 -
18/02:30am 17.3 - - - - - - - - - 1016.9 - -
18/02:00am 17.4 - - - - - - - - - 1017.0 1017.0 -
18/01:30am 17.2 - - - - - - - - - 1017.4 - -
18/01:00am 17.7 - - - - - - - - - 1017.8 1017.8 -
18/12:30am 17.8 - - - - - - - - - 1017.9 - -
18/12:00am 18.2 - - - - - - - - - 1018.2 1018.2 -
 
Date/Time
WST
Temp
°C
App
Temp
°C
Dew
Point
°C
Rel
Hum
%
Delta-T
°C
Wind Press
QNH
hPa
Press
MSL
hPa
Rain since
9am
mm
Dir  Spd
km/h
Gust
km/h
Spd
kts
Gust
kts
17/11:30pm 18.2 - - - - - - - - - 1018.2 - -
17/11:00pm 18.3 - - - - - - - - - 1018.4 1018.4 -
17/10:30pm 18.1 - - - - - - - - - 1018.4 - -
17/10:00pm 18.1 - - - - - - - - - 1018.7 1018.7 -
17/09:30pm 18.1 - - - - - - - - - 1018.7 - -
17/09:00pm 18.0 - - - - - - - - - 1018.8 1018.8 -
17/08:30pm 18.0 - - - - - - - - - 1018.6 - -
17/08:00pm 18.2 - - - - - - - - - 1018.5 1018.5 -
17/07:30pm 18.3 - - - - - - - - - 1018.1 - -
17/07:00pm 18.5 - - - - - - - - - 1017.9 1017.9 -
17/06:30pm 18.4 - - - - - - - - - 1017.6 - -
17/06:00pm 18.4 - - - - - - - - - 1017.5 1017.5 -
17/05:30pm 18.8 - - - - - - - - - 1017.1 - -
17/05:00pm 18.8 - - - - - - - - - 1016.9 1016.9 -
17/04:30pm 19.2 - - - - - - - - - 1016.9 - -
17/04:00pm 18.9 - - - - - - - - - 1016.9 1016.9 -
17/03:30pm 18.9 - - - - - - - - - 1016.9 - -
17/03:00pm 18.9 - - - - - - - - - 1016.8 1016.8 -
17/02:30pm 19.1 - - - - - - - - - 1016.9 - -
17/02:00pm 19.3 - - - - - - - - - 1017.0 1017.0 -
17/01:30pm 18.8 - - - - - - - - - 1017.0 - -
17/01:00pm 19.0 - - - - - - - - - 1016.8 1016.8 -
17/12:30pm 18.6 - - - - - - - - - 1016.9 - -
17/12:00pm 19.0 - - - - - - - - - 1017.0 1017.0 -
17/11:30am 19.0 - - - - - - - - - 1017.2 - -
17/11:00am 18.6 - - - - - - - - - 1017.1 1017.1 -
17/10:30am 18.4 - - - - - - - - - 1016.9 - -
17/10:00am 18.3 - - - - - - - - - 1016.7 1016.7 -
17/09:30am 17.9 - - - - - - - - - 1016.6 - -
17/09:00am 17.7 - - - - - - - - - 1016.4 1016.4 -
17/08:30am 17.6 - - - - - - - - - 1016.4 - -
17/08:00am 17.5 - - - - - - - - - 1016.1 1016.1 -
17/07:30am 17.8 - - - - - - - - - 1016.0 - -
17/07:00am 17.3 - - - - - - - - - 1015.6 1015.6 -
17/06:30am 17.4 - - - - - - - - - 1015.2 - -
17/06:00am 17.6 - - - - - - - - - 1015.0 1015.0 -
17/05:30am 17.5 - - - - - - - - - 1014.7 - -
17/05:00am 17.4 - - - - - - - - - 1014.3 1014.3 -
17/04:30am 17.2 - - - - - - - - - 1013.8 - -
17/04:00am 17.6 - - - - - - - - - 1013.6 1013.6 -
17/03:30am 17.4 - - - - - - - - - 1013.2 - -
17/03:00am 17.3 - - - - - - - - - 1013.0 1013.0 -
17/02:30am 17.3 - - - - - - - - - 1012.6 - -
17/02:00am 17.2 - - - - - - - - - 1012.6 1012.6 -
17/01:30am 17.4 - - - - - - - - - 1012.7 - -
17/01:00am 17.9 - - - - - - - - - 1012.8 1012.8 -
17/12:30am 18.1 - - - - - - - - - 1012.9 - -
17/12:00am 18.2 - - - - - - - - - 1012.7 1012.7 -
 
Date/Time
WST
Temp
°C
App
Temp
°C
Dew
Point
°C
Rel
Hum
%
Delta-T
°C
Wind Press
QNH
hPa
Press
MSL
hPa
Rain since
9am
mm
Dir  Spd
km/h
Gust
km/h
Spd
kts
Gust
kts
16/11:30pm 18.6 - - - - - - - - - 1013.0 - -
16/11:00pm 18.6 - - - - - - - - - 1012.7 1012.7 -
16/10:30pm 18.6 - - - - - - - - - 1013.1 - -
16/10:00pm 18.6 - - - - - - - - - 1013.3 1013.3 -
16/09:30pm 18.5 - - - - - - - - - 1013.1 - -
16/09:00pm 18.6 - - - - - - - - - 1013.1 1013.1 -
16/08:30pm 18.5 - - - - - - - - - 1012.8 - -
16/08:00pm 18.8 - - - - - - - - - 1012.4 1012.4 -
16/07:30pm 18.5 - - - - - - - - - 1012.0 - -
16/07:00pm 18.7 - - - - - - - - - 1012.0 1012.0 -
16/06:30pm 19.1 - - - - - - - - - 1011.2 - -
16/06:00pm 19.1 - - - - - - - - - 1011.2 1011.2 -
16/05:30pm 19.0 - - - - - - - - - 1010.8 - -
16/05:00pm 19.5 - - - - - - - - - 1010.5 1010.5 -
16/04:30pm 19.4 - - - - - - - - - 1010.6 - -
16/04:00pm 19.4 - - - - - - - - - 1010.2 1010.2 -
16/03:30pm 19.6 - - - - - - - - - 1009.8 - -
16/03:00pm 19.4 - - - - - - - - - 1009.7 1009.7 -
16/02:30pm 19.6 - - - - - - - - - 1009.5 - -
16/02:00pm 19.2 - - - - - - - - - 1009.4 1009.4 -
16/01:30pm 19.4 - - - - - - - - - 1009.3 - -
16/01:00pm 19.3 - - - - - - - - - 1009.2 1009.2 -
16/12:30pm 19.3 - - - - - - - - - 1009.3 - -
16/12:00pm 19.6 - - - - - - - - - 1008.9 1008.9 -
16/11:30am 19.8 - - - - - - - - - 1008.9 - -
16/11:00am 19.5 - - - - - - - - - 1009.0 1009.0 -
16/10:30am 19.5 - - - - - - - - - 1008.9 - -
16/10:00am 19.4 - - - - - - - - - 1008.6 1008.6 -
16/09:30am 19.5 - - - - - - - - - 1008.6 - -
16/09:00am 19.3 - - - - - - - - - 1008.5 1008.5 -
16/08:30am 19.0 - - - - - - - - - 1008.7 - -

Other Formats:

Comma delimited format used in spreadsheet applications
http://www.bom.gov.au/fwo/IDW60801/IDW60801.95648.axf

JavaScript Object Notation format (JSON) in row-major order
http://www.bom.gov.au/fwo/IDW60801/IDW60801.95648.json